Time;durP1;ratioP1;P1;durP2;ratioP2;P2;SDS_P1;SDS_P2;PMS_P1;PMS_P2;Temp;Humidity;BMP_temperature;BMP_pressure;BME280_temperature;BME280_humidity;BME280_pressure;Samples;Min_cycle;Max_cycle;Signal;HPM_P1;HPM_P2
2021/08/06 00:00:52;;;;;;;11.15;6.10;;;;;;;38.32;19.37;93544.88;5052869;28;20049;-67
2021/08/06 00:03:20;;;;;;;13.15;6.40;;;;;;;38.31;19.34;93543.38;5051762;28;20040;-68
2021/08/06 00:05:48;;;;;;;15.90;6.72;;;;;;;38.49;19.33;93534.78;5051053;28;20056;-68
2021/08/06 00:08:15;;;;;;;14.45;6.22;;;;;;;38.27;19.27;93533.91;5050859;28;20471;-66
2021/08/06 00:10:42;;;;;;;13.60;6.22;;;;;;;38.28;19.45;93525.25;5050883;28;20066;-67
2021/08/06 00:13:09;;;;;;;15.38;6.05;;;;;;;38.34;19.33;93520.56;5033212;28;20079;-67
2021/08/06 00:15:36;;;;;;;15.82;6.80;;;;;;;38.45;19.13;93508.97;5051681;28;20431;-70
2021/08/06 00:18:03;;;;;;;14.20;6.13;;;;;;;38.60;18.80;93525.19;5050335;28;20048;-67
2021/08/06 00:20:32;;;;;;;15.35;6.65;;;;;;;38.28;19.42;93511.59;5050558;28;20056;-63
2021/08/06 00:23:00;;;;;;;16.15;6.43;;;;;;;38.60;19.08;93506.09;5051234;28;20059;-61
2021/08/06 00:25:27;;;;;;;12.43;5.97;;;;;;;38.44;19.58;93505.50;5051195;28;20458;-63
2021/08/06 00:27:54;;;;;;;12.95;6.68;;;;;;;38.25;19.44;93496.16;5030779;28;20454;-68
2021/08/06 00:30:22;;;;;;;12.52;6.00;;;;;;;38.48;19.23;93503.28;5016960;28;20053;-68
2021/08/06 00:32:59;;;;;;;11.95;6.20;;;;;;;38.27;19.54;93504.66;5047843;28;20064;-69
2021/08/06 00:35:34;;;;;;;15.20;6.03;;;;;;;38.62;19.31;93509.06;5030813;28;20379;-68
2021/08/06 00:38:02;;;;;;;14.00;6.05;;;;;;;38.47;19.47;93512.69;5052251;28;20049;-68
2021/08/06 00:40:29;;;;;;;14.43;6.65;;;;;;;38.28;19.64;93506.13;5052109;28;20057;-63
2021/08/06 00:42:59;;;;;;;12.43;6.05;;;;;;;38.22;19.81;93503.34;5031278;28;20050;-67
2021/08/06 00:45:34;;;;;;;13.77;6.65;;;;;;;38.30;19.80;93497.47;5026384;28;20364;-65
2021/08/06 00:48:04;;;;;;;10.65;6.15;;;;;;;38.17;20.25;93489.66;5031347;28;20052;-64
2021/08/06 00:50:34;;;;;;;11.20;5.93;;;;;;;38.20;20.05;93494.91;5032255;28;20053;-66
2021/08/06 00:53:04;;;;;;;10.50;5.53;;;;;;;38.39;19.97;93489.81;5029875;28;20379;-71
2021/08/06 00:55:33;;;;;;;14.73;6.32;;;;;;;38.37;19.56;93491.56;5045225;28;20056;-62
2021/08/06 00:58:15;;;;;;;11.60;5.78;;;;;;;38.32;19.45;93473.91;5035731;28;20048;-63
2021/08/06 01:00:48;;;;;;;9.83;5.40;;;;;;;38.36;19.70;93479.13;5030893;28;20415;-66
2021/08/06 01:03:28;;;;;;;10.10;5.55;;;;;;;38.32;19.81;93490.28;5015607;28;20046;-66
2021/08/06 01:06:08;;;;;;;11.70;4.95;;;;;;;38.48;19.09;93497.81;5019534;28;20083;-66
2021/08/06 01:09:14;;;;;;;15.93;5.70;;;;;;;38.11;19.22;93497.03;5032875;28;20045;-69
2021/08/06 01:11:45;;;;;;;11.43;5.45;;;;;;;38.24;18.92;93487.25;5019011;28;20052;-64
2021/08/06 01:14:16;;;;;;;11.07;5.18;;;;;;;38.09;19.38;93494.81;5050326;28;20048;-68
2021/08/06 01:16:47;;;;;;;9.27;5.25;;;;;;;38.32;18.76;93501.19;5018739;28;20384;-68
2021/08/06 01:19:48;;;;;;;11.57;5.00;;;;;;;38.04;19.17;93511.88;5034981;28;20447;-68
2021/08/06 01:22:21;;;;;;;9.93;5.20;;;;;;;37.89;19.81;93519.44;5035301;28;20040;-70
2021/08/06 01:25:30;;;;;;;15.52;5.55;;;;;;;37.86;19.53;93515.69;5035216;28;20049;-70
2021/08/06 01:27:58;;;;;;;13.50;5.28;;;;;;;37.92;19.62;93513.75;5009003;28;20080;-68
2021/08/06 01:30:28;;;;;;;11.75;5.55;;;;;;;38.06;19.59;93505.94;5018463;28;20046;-68
2021/08/06 01:32:58;;;;;;;13.43;6.20;;;;;;;37.77;19.67;93490.56;5035356;28;20049;-67
2021/08/06 01:35:26;;;;;;;8.85;5.45;;;;;;;37.95;19.56;93501.88;5018346;28;20045;-67
2021/08/06 01:37:54;;;;;;;12.85;6.13;;;;;;;38.09;19.23;93502.25;5051967;28;20076;-64
2021/08/06 01:40:21;;;;;;;10.90;5.53;;;;;;;37.90;19.50;93505.31;5034355;28;20056;-68
2021/08/06 01:43:15;;;;;;;11.07;5.88;;;;;;;37.97;19.15;93513.03;5029960;28;20057;-67
2021/08/06 01:45:47;;;;;;;12.88;5.55;;;;;;;37.91;19.40;93517.72;5035032;28;20124;-69
2021/08/06 01:48:17;;;;;;;9.07;5.47;;;;;;;38.08;19.25;93508.94;5043965;28;20360;-65
2021/08/06 01:50:49;;;;;;;10.65;5.57;;;;;;;37.94;19.27;93514.00;5035823;28;20041;-67
2021/08/06 01:53:23;;;;;;;9.45;5.53;;;;;;;37.79;19.18;93513.41;5034528;28;20057;-68
2021/08/06 01:55:58;;;;;;;11.98;5.38;;;;;;;37.81;19.36;93502.75;5022559;28;20045;-67
2021/08/06 01:58:34;;;;;;;13.38;5.10;;;;;;;37.93;19.71;93504.34;5038117;28;20344;-68
2021/08/06 02:01:04;;;;;;;13.63;5.68;;;;;;;38.11;19.37;93513.41;5038040;28;20044;-66
2021/08/06 02:03:32;;;;;;;14.60;5.38;;;;;;;37.89;19.40;93503.06;5038146;28;20055;-67
2021/08/06 02:06:18;;;;;;;13.65;5.25;;;;;;;37.98;19.91;93502.88;5038370;28;20048;-67
2021/08/06 02:08:47;;;;;;;12.40;5.18;;;;;;;37.80;19.84;93500.50;5055193;28;20056;-67
2021/08/06 02:11:18;;;;;;;13.23;5.00;;;;;;;37.96;19.74;93497.16;5022094;28;20048;-67
2021/08/06 02:13:46;;;;;;;11.23;5.15;;;;;;;37.74;19.86;93491.53;5037641;28;20045;-68
2021/08/06 02:16:14;;;;;;;11.25;5.63;;;;;;;38.04;19.56;93486.59;5006424;28;20041;-66
2021/08/06 02:18:43;;;;;;;13.07;4.85;;;;;;;37.99;19.68;93484.53;5023942;28;20057;-67
2021/08/06 02:21:15;;;;;;;10.20;4.75;;;;;;;37.80;19.42;93487.63;5037225;28;20382;-66
2021/08/06 02:23:50;;;;;;;12.85;5.38;;;;;;;37.57;20.05;93483.16;5019452;28;20045;-66
2021/08/06 02:26:24;;;;;;;11.30;5.38;;;;;;;37.78;19.39;93492.06;5021598;28;20045;-68
2021/08/06 02:28:56;;;;;;;13.43;5.30;;;;;;;37.55;19.78;93491.09;5021839;28;20779;-66
2021/08/06 02:31:26;;;;;;;;;;;;;;;37.63;20.01;93486.69;5038744;28;20051;-67
2021/08/06 02:33:55;;;;;;;9.32;4.78;;;;;;;37.80;19.71;93484.16;5038098;28;19931;-69
2021/08/06 02:36:22;;;;;;;10.35;4.53;;;;;;;37.78;19.61;93479.19;5037514;28;20048;-68
2021/08/06 02:38:50;;;;;;;14.02;5.30;;;;;;;37.73;19.97;93474.41;5037518;28;20060;-69
2021/08/06 02:41:19;;;;;;;11.80;6.10;;;;;;;37.80;19.62;93490.34;5053817;28;20083;-67
2021/08/06 02:43:46;;;;;;;12.07;5.55;;;;;;;37.59;19.79;93480.72;5033237;28;20041;-68
2021/08/06 02:46:15;;;;;;;9.85;4.35;;;;;;;37.55;20.20;93480.19;5051410;28;20052;-68
2021/08/06 02:48:43;;;;;;;10.43;4.95;;;;;;;37.58;19.88;93479.22;5054471;28;20052;-68
2021/08/06 02:51:10;;;;;;;14.13;5.32;;;;;;;37.22;20.25;93473.13;5055076;28;20049;-68
2021/08/06 02:53:37;;;;;;;10.73;4.90;;;;;;;37.40;20.22;93480.28;5036514;28;20373;-67
2021/08/06 02:56:05;;;;;;;11.93;4.88;;;;;;;37.45;20.17;93487.00;5036572;28;20059;-65
2021/08/06 02:58:37;;;;;;;9.70;4.50;;;;;;;37.54;20.13;93489.59;5037735;28;20351;-67
2021/08/06 03:01:04;;;;;;;10.90;4.78;;;;;;;37.53;20.08;93493.53;5036409;28;20060;-67
2021/08/06 03:03:32;;;;;;;9.85;4.85;;;;;;;37.51;19.75;93485.09;5037309;28;20367;-67
2021/08/06 03:06:00;;;;;;;13.18;4.82;;;;;;;37.20;20.54;93491.16;5032200;28;20052;-67
2021/08/06 03:08:28;;;;;;;13.25;4.60;;;;;;;37.28;20.18;93495.75;5035293;28;20049;-67
2021/08/06 03:10:55;;;;;;;15.48;4.68;;;;;;;36.83;21.37;93499.91;5020736;28;20056;-67
2021/08/06 03:13:22;;;;;;;10.40;4.05;;;;;;;36.63;22.39;93514.22;5055010;28;20056;-67
2021/08/06 03:15:50;;;;;;;12.70;4.78;;;;;;;36.94;22.72;93518.34;5023655;28;20049;-67
2021/08/06 03:18:18;;;;;;;11.65;4.25;;;;;;;36.81;23.16;93524.13;5041257;28;20052;-67
2021/08/06 03:20:45;;;;;;;9.70;4.88;;;;;;;36.97;23.61;93537.22;5036454;28;20045;-66
2021/08/06 03:23:12;;;;;;;9.32;3.92;;;;;;;36.95;23.85;93556.00;5036776;28;20467;-66
2021/08/06 03:25:41;;;;;;;8.55;4.15;;;;;;;36.58;24.05;93577.50;5037273;28;20056;-68
2021/08/06 03:28:09;;;;;;;10.77;4.15;;;;;;;36.67;24.20;93590.97;5033319;28;20052;-68
2021/08/06 03:30:37;;;;;;;8.05;3.88;;;;;;;36.87;23.25;93595.00;5020280;28;20053;-68
2021/08/06 03:33:04;;;;;;;9.45;4.35;;;;;;;36.50;24.00;93613.75;5053702;28;20051;-67
2021/08/06 03:35:31;;;;;;;7.68;4.20;;;;;;;36.29;24.61;93626.47;5044763;28;20051;-66
2021/08/06 03:38:00;;;;;;;8.70;3.92;;;;;;;36.35;24.68;93628.09;5073170;28;20059;-68
2021/08/06 03:40:27;;;;;;;9.07;4.18;;;;;;;35.95;25.49;93642.22;5058822;28;20057;-66
2021/08/06 03:42:55;;;;;;;7.90;4.10;;;;;;;36.17;25.26;93643.81;5026244;28;20064;-66
2021/08/06 03:45:22;;;;;;;5.57;3.65;;;;;;;36.19;25.72;93641.41;5054341;28;20075;-67
2021/08/06 03:47:50;;;;;;;7.43;3.92;;;;;;;36.01;25.40;93637.63;5035602;28;20048;-64
2021/08/06 03:50:17;;;;;;;5.72;3.40;;;;;;;36.01;25.61;93634.91;5051272;28;20056;-67
2021/08/06 03:52:45;;;;;;;12.85;3.60;;;;;;;36.23;25.43;93639.25;5033312;28;20056;-68
2021/08/06 03:55:12;;;;;;;7.13;3.53;;;;;;;36.25;25.39;93631.34;5053778;28;20213;-65
2021/08/06 03:57:56;;;;;;;9.38;3.55;;;;;;;36.01;25.51;93626.75;5049994;28;20356;-67
2021/08/06 04:00:26;;;;;;;9.25;3.55;;;;;;;36.08;25.75;93625.63;5033787;28;20045;-67
2021/08/06 04:02:54;;;;;;;18.30;4.00;;;;;;;35.89;25.38;93619.59;5051615;28;20418;-66
2021/08/06 04:05:25;;;;;;;8.53;4.00;;;;;;;35.73;24.97;93617.31;5045953;28;20386;-66
2021/08/06 04:07:52;;;;;;;5.68;3.42;;;;;;;35.12;26.13;93606.66;5047031;28;20048;-76
2021/08/06 04:10:24;;;;;;;8.48;3.20;;;;;;;34.54;26.87;93610.53;5051984;28;20045;-76
2021/08/06 04:12:51;;;;;;;6.85;3.15;;;;;;;34.80;26.66;93610.13;5033348;28;20064;-67
2021/08/06 04:15:19;;;;;;;8.13;3.70;;;;;;;35.25;26.11;93609.16;5050584;28;20045;-45
2021/08/06 04:17:46;;;;;;;8.18;3.00;;;;;;;35.12;26.39;93598.50;5031887;28;20059;-50
2021/08/06 04:20:14;;;;;;;5.88;3.38;;;;;;;35.68;25.34;93596.22;5051160;28;20045;-49
2021/08/06 04:22:41;;;;;;;6.35;2.92;;;;;;;35.60;24.93;93593.06;5033456;28;20052;-53
2021/08/06 04:25:10;;;;;;;5.30;3.45;;;;;;;35.37;25.49;93586.47;5034049;28;20379;-57
2021/08/06 04:27:38;;;;;;;7.07;3.22;;;;;;;35.25;26.25;93598.31;5030732;28;20439;-67
2021/08/06 04:30:06;;;;;;;7.35;3.35;;;;;;;35.08;26.57;93606.09;5016339;28;20049;-55
2021/08/06 04:32:34;;;;;;;8.65;3.35;;;;;;;34.91;26.83;93618.56;5038159;28;20463;-51
2021/08/06 04:35:02;;;;;;;6.57;3.33;;;;;;;35.04;26.61;93615.63;5033386;28;20053;-54
2021/08/06 04:37:29;;;;;;;9.48;3.95;;;;;;;35.06;27.21;93607.75;5033932;28;20051;-53
2021/08/06 04:39:56;;;;;;;7.45;3.60;;;;;;;35.41;26.24;93606.06;5049431;28;20056;-55
2021/08/06 04:42:23;;;;;;;6.88;3.60;;;;;;;35.38;26.41;93601.53;5027194;28;20069;-53
2021/08/06 04:44:50;;;;;;;7.68;3.35;;;;;;;35.62;26.76;93604.22;5013152;28;20058;-54
2021/08/06 04:47:17;;;;;;;8.52;3.78;;;;;;;35.18;27.96;93606.81;5013974;28;20042;-52
2021/08/06 04:49:46;;;;;;;8.32;3.40;;;;;;;35.45;27.45;93609.38;5013932;28;20176;-56
2021/08/06 04:52:13;;;;;;;8.48;3.50;;;;;;;35.08;27.85;93605.34;5013229;28;20057;-60
2021/08/06 04:54:40;;;;;;;7.05;3.75;;;;;;;35.27;27.57;93620.31;5014498;28;20371;-53
2021/08/06 04:57:07;;;;;;;6.55;3.58;;;;;;;35.52;27.41;93617.16;5015095;28;20057;-67
2021/08/06 04:59:34;;;;;;;7.10;3.63;;;;;;;35.59;26.85;93621.47;5030249;28;20049;-58
2021/08/06 05:02:01;;;;;;;9.02;4.00;;;;;;;35.31;27.00;93626.31;5014444;28;20056;-45
2021/08/06 05:04:30;;;;;;;4.88;3.17;;;;;;;35.44;26.67;93621.44;5010327;28;20031;-52
2021/08/06 05:06:57;;;;;;;9.32;3.70;;;;;;;35.35;27.43;93626.94;5014131;28;20079;-53
2021/08/06 05:09:24;;;;;;;6.72;3.15;;;;;;;35.26;27.83;93637.84;5013556;28;20045;-55
2021/08/06 05:11:52;;;;;;;7.13;3.50;;;;;;;35.39;27.58;93641.09;5013105;28;20388;-51
2021/08/06 05:14:19;;;;;;;6.72;3.25;;;;;;;35.41;27.78;93640.66;5014549;28;20049;-53
2021/08/06 05:16:46;;;;;;;8.32;3.42;;;;;;;35.65;27.46;93648.75;5013544;28;20053;-57
2021/08/06 05:19:13;;;;;;;6.03;3.50;;;;;;;35.50;27.91;93652.19;5014607;28;20054;-57
2021/08/06 05:21:40;;;;;;;6.88;3.70;;;;;;;35.56;28.24;93654.25;5013198;28;20364;-58
2021/08/06 05:24:09;;;;;;;6.00;3.60;;;;;;;35.47;28.64;93650.41;5012417;28;20376;-57
2021/08/06 05:26:36;;;;;;;5.13;3.28;;;;;;;35.79;28.36;93650.78;5014473;28;20050;-56
2021/08/06 05:29:03;;;;;;;5.00;3.40;;;;;;;35.54;28.74;93657.44;5014518;28;20056;-53
2021/08/06 05:31:31;;;;;;;6.25;4.00;;;;;;;35.61;28.90;93661.78;5017090;28;20046;-53
2021/08/06 05:33:58;;;;;;;6.18;4.20;;;;;;;35.50;28.78;93673.94;5016661;28;20053;-57
2021/08/06 05:36:25;;;;;;;7.03;3.67;;;;;;;35.62;28.65;93685.03;5017265;28;20046;-53
2021/08/06 05:38:53;;;;;;;6.13;3.30;;;;;;;35.62;28.39;93679.59;5017342;28;20056;-56
2021/08/06 05:41:20;;;;;;;8.18;3.70;;;;;;;35.45;28.16;93682.72;5018140;28;20052;-55
2021/08/06 05:43:47;;;;;;;8.60;3.83;;;;;;;35.59;27.83;93685.94;5016968;28;20037;-56
2021/08/06 05:46:14;;;;;;;8.98;4.05;;;;;;;35.48;27.46;93681.78;4999563;28;20050;-53
2021/08/06 05:48:41;;;;;;;8.48;4.00;;;;;;;35.52;27.40;93676.94;4997546;28;20368;-52
2021/08/06 05:51:08;;;;;;;7.47;4.18;;;;;;;35.78;27.73;93681.91;4997091;28;20054;-53
2021/08/06 05:53:36;;;;;;;8.07;3.42;;;;;;;35.66;28.08;93678.22;4996291;28;20442;-54
2021/08/06 05:56:04;;;;;;;7.30;3.83;;;;;;;35.86;27.28;93696.66;4997001;28;20053;-55
2021/08/06 05:58:43;;;;;;;8.55;3.47;;;;;;;35.95;27.32;93696.59;4997545;28;20334;-56
2021/08/06 06:01:11;;;;;;;8.45;3.65;;;;;;;35.74;27.55;93692.19;4997031;28;20042;-52
2021/08/06 06:03:48;;;;;;;8.40;3.90;;;;;;;35.89;27.38;93687.56;4997062;28;20046;-56
2021/08/06 06:06:22;;;;;;;8.40;3.53;;;;;;;36.12;27.20;93684.03;4997149;28;20061;-57
2021/08/06 06:08:50;;;;;;;7.57;3.40;;;;;;;36.11;27.50;93692.69;4999968;28;20380;-53
2021/08/06 06:11:19;;;;;;;8.73;4.03;;;;;;;36.39;26.51;93693.19;5014979;28;20052;-56
2021/08/06 06:13:47;;;;;;;8.10;3.70;;;;;;;36.31;27.22;93689.34;4996889;28;20046;-57
2021/08/06 06:16:14;;;;;;;8.35;3.78;;;;;;;36.54;26.32;93691.25;5015899;28;20060;-54
2021/08/06 06:18:42;;;;;;;7.88;3.80;;;;;;;36.71;26.00;93700.44;5016369;28;20053;-58
2021/08/06 06:21:10;;;;;;;7.93;3.90;;;;;;;37.12;25.34;93711.50;5017530;28;20054;-54
2021/08/06 06:23:38;;;;;;;5.80;3.60;;;;;;;37.05;25.89;93711.88;4996956;28;20049;-54
2021/08/06 06:26:07;;;;;;;6.80;3.42;;;;;;;36.85;25.82;93709.09;4996511;28;20050;-57
2021/08/06 06:28:35;;;;;;;7.55;4.07;;;;;;;36.11;27.31;93717.91;4996215;28;20058;-54
2021/08/06 06:31:03;;;;;;;8.52;3.97;;;;;;;36.49;27.26;93710.97;4996082;28;20053;-53
2021/08/06 06:33:31;;;;;;;7.55;3.47;;;;;;;37.22;26.18;93707.44;4995959;28;20046;-56
2021/08/06 06:35:59;;;;;;;7.60;3.88;;;;;;;37.58;24.95;93713.66;5013644;28;20057;-57
2021/08/06 06:38:26;;;;;;;8.40;3.60;;;;;;;37.68;25.02;93706.81;5016237;28;20050;-54
2021/08/06 06:40:53;;;;;;;6.63;3.50;;;;;;;37.53;24.59;93708.88;5014932;28;20046;-57
2021/08/06 06:43:25;;;;;;;8.77;3.67;;;;;;;37.95;23.66;93711.16;5015184;28;20073;-53
2021/08/06 06:45:53;;;;;;;6.95;3.42;;;;;;;37.72;24.61;93718.31;5012332;28;20054;-54
2021/08/06 06:48:25;;;;;;;29.90;4.10;;;;;;;37.85;23.45;93720.69;4996930;28;20050;-55
2021/08/06 06:50:53;;;;;;;6.80;3.67;;;;;;;38.07;23.37;93717.50;4996401;28;20046;-55
2021/08/06 06:53:21;;;;;;;8.07;3.55;;;;;;;37.92;23.59;93707.41;5029264;28;20053;-57
2021/08/06 06:55:50;;;;;;;6.80;4.00;;;;;;;38.69;22.79;93707.97;5015222;28;20054;-56
2021/08/06 06:58:18;;;;;;;5.97;3.88;;;;;;;38.96;23.16;93704.72;5012726;28;20720;-61
2021/08/06 07:00:45;;;;;;;14.63;3.35;;;;;;;38.85;22.83;93699.19;5012438;28;20453;-56
2021/08/06 07:03:12;;;;;;;6.18;3.70;;;;;;;38.95;22.49;93699.75;5011344;28;20045;-57
2021/08/06 07:05:40;;;;;;;6.32;3.22;;;;;;;39.15;22.34;93710.59;5032196;28;20046;-58
2021/08/06 07:08:08;;;;;;;8.98;3.70;;;;;;;38.94;22.70;93707.19;5012377;28;20046;-53
2021/08/06 07:10:38;;;;;;;5.13;3.50;;;;;;;39.11;22.83;93705.38;5012826;28;20054;-55
2021/08/06 07:13:05;;;;;;;5.65;3.60;;;;;;;39.03;22.33;93700.78;5014959;28;20062;-53
2021/08/06 07:15:33;;;;;;;6.35;3.80;;;;;;;37.92;23.36;93696.50;5013908;28;20042;-55
2021/08/06 07:18:00;;;;;;;6.32;3.40;;;;;;;37.68;24.13;93698.66;5015335;28;20052;-55
2021/08/06 07:20:29;;;;;;;6.20;3.25;;;;;;;37.61;23.62;93697.09;5015241;28;20042;-54
2021/08/06 07:22:57;;;;;;;5.68;3.50;;;;;;;37.75;23.69;93695.56;5014891;28;20445;-56
2021/08/06 07:25:25;;;;;;;6.35;3.80;;;;;;;38.40;22.76;93693.31;5015135;28;20058;-58
2021/08/06 07:27:52;;;;;;;6.75;4.18;;;;;;;38.45;22.12;93694.56;5014818;28;20057;-56
2021/08/06 07:30:20;;;;;;;5.13;3.65;;;;;;;39.20;21.85;93695.47;5011218;28;20050;-58
2021/08/06 07:32:48;;;;;;;7.85;3.95;;;;;;;39.47;21.57;93686.69;4994585;28;20042;-55
2021/08/06 07:35:16;;;;;;;5.00;3.40;;;;;;;38.75;22.06;93684.94;5005030;28;20373;-58
2021/08/06 07:37:44;;;;;;;7.40;3.55;;;;;;;38.21;22.21;93678.47;5016224;28;20050;-55
2021/08/06 07:40:13;;;;;;;8.10;4.13;;;;;;;38.34;22.41;93669.91;5014717;28;20045;-55
2021/08/06 07:42:40;;;;;;;7.00;3.55;;;;;;;38.90;21.99;93668.41;5028880;28;20363;-57
2021/08/06 07:45:09;;;;;;;5.35;3.78;;;;;;;38.39;22.48;93669.97;5037793;28;20432;-56
2021/08/06 07:47:36;;;;;;;8.38;3.53;;;;;;;38.18;22.07;93663.81;5054879;28;20040;-55
2021/08/06 07:50:04;;;;;;;5.30;3.47;;;;;;;39.19;21.78;93669.38;5037811;28;20041;-55
2021/08/06 07:52:32;;;;;;;7.93;3.78;;;;;;;38.79;21.36;93673.81;5053587;28;20049;-54
2021/08/06 07:54:59;;;;;;;4.63;3.45;;;;;;;38.75;21.60;93670.53;5037214;28;20052;-56
2021/08/06 07:57:26;;;;;;;6.03;3.80;;;;;;;38.31;22.56;93668.91;5055429;28;20056;-55
2021/08/06 07:59:54;;;;;;;3.78;3.08;;;;;;;39.15;20.89;93656.69;5036746;28;20044;-59
2021/08/06 08:02:21;;;;;;;8.02;3.85;;;;;;;39.40;20.90;93666.03;5037479;28;20044;-56
2021/08/06 08:04:49;;;;;;;6.47;4.00;;;;;;;39.32;20.58;93665.00;5036686;28;20041;-53
2021/08/06 08:07:31;;;;;;;7.82;3.75;;;;;;;39.71;20.34;93667.94;5038551;28;20048;-56
2021/08/06 08:09:58;;;;;;;6.00;3.85;;;;;;;39.73;20.34;93659.22;5035866;28;20056;-54
2021/08/06 08:12:25;;;;;;;6.30;4.18;;;;;;;39.11;20.70;93650.72;5054333;28;20056;-58
2021/08/06 08:14:53;;;;;;;7.07;4.75;;;;;;;38.65;21.11;93658.31;5036686;28;20048;-56
2021/08/06 08:17:23;;;;;;;4.63;3.85;;;;;;;38.24;21.42;93667.34;5033205;28;20057;-54
2021/08/06 08:19:51;;;;;;;5.35;4.30;;;;;;;37.82;22.23;93658.94;5033458;28;20049;-53
2021/08/06 08:22:18;;;;;;;8.18;4.25;;;;;;;38.56;21.25;93657.22;5040014;28;20059;-57
2021/08/06 08:24:46;;;;;;;6.57;4.40;;;;;;;39.54;20.78;93658.91;5037091;28;20055;-55
2021/08/06 08:27:14;;;;;;;4.93;4.43;;;;;;;39.34;20.82;93657.06;5036790;28;20051;-55
2021/08/06 08:29:42;;;;;;;6.78;4.78;;;;;;;38.78;21.17;93658.66;5037221;28;20075;-54
2021/08/06 08:32:10;;;;;;;8.65;4.70;;;;;;;38.55;21.27;93644.06;5036951;28;20041;-54
2021/08/06 08:34:37;;;;;;;6.25;4.60;;;;;;;38.85;21.35;93642.56;5036817;28;20064;-57
2021/08/06 08:37:04;;;;;;;6.72;4.70;;;;;;;38.63;21.31;93634.22;5036775;28;20049;-55
2021/08/06 08:39:31;;;;;;;7.47;4.53;;;;;;;38.82;21.42;93640.81;5054406;28;20045;-56
2021/08/06 08:42:03;;;;;;;5.25;4.43;;;;;;;39.40;21.05;93644.16;5036261;28;20371;-56
2021/08/06 08:44:34;;;;;;;5.53;4.60;;;;;;;39.58;20.66;93648.50;5020354;28;20363;-53
2021/08/06 08:47:04;;;;;;;5.70;4.40;;;;;;;39.02;21.18;93642.66;5053962;28;20407;-53
2021/08/06 08:49:35;;;;;;;4.75;4.35;;;;;;;39.43;20.45;93642.44;5053155;28;20056;-57
2021/08/06 08:52:03;;;;;;;5.38;4.88;;;;;;;39.77;20.37;93641.34;5036682;28;20083;-59
2021/08/06 08:54:30;;;;;;;5.32;4.78;;;;;;;39.52;20.34;93639.50;5054116;28;20052;-56
2021/08/06 08:56:58;;;;;;;8.27;5.40;;;;;;;39.65;19.81;93645.28;5037172;28;20474;-58
2021/08/06 08:59:25;;;;;;;7.03;5.60;;;;;;;39.33;19.67;93649.34;5036897;28;20371;-55
2021/08/06 09:01:53;;;;;;;6.45;5.85;;;;;;;38.78;20.10;93650.47;5035800;28;20057;-55
2021/08/06 09:04:22;;;;;;;8.30;6.32;;;;;;;38.93;20.20;93648.31;5032853;28;20048;-58
2021/08/06 09:06:51;;;;;;;8.38;5.60;;;;;;;38.78;19.95;93645.00;5035813;28;20447;-56
2021/08/06 09:09:45;;;;;;;6.18;5.40;;;;;;;38.48;20.03;93645.22;5050476;28;20391;-53
2021/08/06 09:12:25;;;;;;;6.35;5.75;;;;;;;39.61;19.21;93647.53;5021660;28;20068;-55
2021/08/06 09:14:52;;;;;;;5.50;5.00;;;;;;;39.87;19.05;93639.16;5053342;28;20045;-54
2021/08/06 09:17:19;;;;;;;6.45;5.85;;;;;;;39.06;19.22;93635.03;5054422;28;20103;-55
2021/08/06 09:19:57;;;;;;;6.63;5.95;;;;;;;39.74;18.57;93634.13;5053457;28;20060;-54
2021/08/06 09:22:28;;;;;;;6.65;6.05;;;;;;;39.95;18.17;93633.97;5036389;28;20120;-54
2021/08/06 09:25:14;;;;;;;7.00;5.88;;;;;;;40.16;18.16;93635.25;5054146;28;20045;-56
2021/08/06 09:27:50;;;;;;;6.38;5.78;;;;;;;40.16;17.97;93637.25;5054190;28;20374;-57
2021/08/06 09:30:34;;;;;;;5.68;5.18;;;;;;;40.40;17.34;93636.81;5053094;28;20048;-54
2021/08/06 09:33:01;;;;;;;6.50;6.00;;;;;;;40.54;17.31;93631.09;5052957;28;20059;-56
2021/08/06 09:35:30;;;;;;;6.10;5.50;;;;;;;40.29;17.35;93638.25;5054088;28;20393;-58
2021/08/06 09:37:58;;;;;;;5.15;4.75;;;;;;;40.42;17.48;93635.06;5036549;28;20359;-55
2021/08/06 09:40:26;;;;;;;6.03;5.00;;;;;;;40.20;17.47;93640.50;5052875;28;20056;-59
2021/08/06 09:42:56;;;;;;;5.80;5.22;;;;;;;40.12;17.67;93642.22;5053429;28;20057;-57
2021/08/06 09:45:26;;;;;;;5.32;4.93;;;;;;;40.33;17.43;93638.75;5054281;28;20049;-57
2021/08/06 09:47:55;;;;;;;6.10;5.50;;;;;;;40.73;17.34;93636.81;5054210;28;20052;-54
2021/08/06 09:50:26;;;;;;;6.97;4.72;;;;;;;40.47;17.14;93637.06;5052599;28;20045;-59
2021/08/06 09:52:54;;;;;;;4.85;4.38;;;;;;;40.41;16.75;93632.84;5053762;28;20060;-55
2021/08/06 09:55:23;;;;;;;5.53;4.65;;;;;;;40.28;16.66;93634.03;5052971;28;20052;-53
2021/08/06 09:57:51;;;;;;;4.90;4.40;;;;;;;40.54;16.88;93633.06;5053613;28;20052;-53
2021/08/06 10:00:20;;;;;;;5.07;4.57;;;;;;;40.53;16.78;93631.59;5052504;28;20041;-55
2021/08/06 10:02:47;;;;;;;4.90;4.38;;;;;;;40.41;16.82;93638.31;5052891;28;20052;-60
2021/08/06 10:05:17;;;;;;;5.85;4.68;;;;;;;40.34;16.63;93640.28;5054130;28;20045;-60
2021/08/06 10:07:51;;;;;;;4.70;4.30;;;;;;;40.46;16.61;93638.31;5054025;28;20049;-58
2021/08/06 10:10:26;;;;;;;5.07;4.35;;;;;;;40.21;16.83;93625.56;5053164;28;20044;-56
2021/08/06 10:12:53;;;;;;;5.03;4.53;;;;;;;40.26;16.32;93628.31;5053462;28;20060;-57
2021/08/06 10:15:22;;;;;;;4.75;4.35;;;;;;;40.41;16.58;93616.41;5053875;28;20053;-55
2021/08/06 10:17:49;;;;;;;4.18;3.88;;;;;;;40.46;16.40;93612.91;5056820;28;20057;-57
2021/08/06 10:20:20;;;;;;;4.65;4.25;;;;;;;40.45;16.38;93611.44;5057548;28;20388;-56
2021/08/06 10:22:47;;;;;;;5.18;3.90;;;;;;;40.36;16.70;93610.41;5056963;28;20371;-56
2021/08/06 10:25:16;;;;;;;4.15;3.75;;;;;;;40.35;16.30;93619.88;5057292;28;20041;-59
2021/08/06 10:27:46;;;;;;;3.67;3.30;;;;;;;40.64;16.25;93617.91;5056437;28;20052;-59
2021/08/06 10:30:31;;;;;;;3.67;3.38;;;;;;;40.82;16.06;93611.91;5039475;28;20053;-54
2021/08/06 10:33:23;;;;;;;4.78;3.40;;;;;;;40.80;15.82;93611.69;5056494;28;20075;-56
2021/08/06 10:35:52;;;;;;;4.93;3.70;;;;;;;40.40;15.83;93604.72;5056117;28;20060;-55
2021/08/06 10:38:41;;;;;;;3.75;3.30;;;;;;;40.45;15.71;93598.47;5039391;28;20048;-55
2021/08/06 10:41:16;;;;;;;3.88;3.47;;;;;;;40.23;16.08;93596.44;5042386;28;20049;-57
2021/08/06 10:43:45;;;;;;;4.32;3.92;;;;;;;40.56;15.96;93597.72;5056632;28;20375;-56
2021/08/06 10:46:13;;;;;;;3.60;3.30;;;;;;;40.78;15.92;93589.47;5055674;28;20443;-59
2021/08/06 10:48:49;;;;;;;3.08;2.78;;;;;;;40.71;16.08;93600.22;5056672;28;20055;-55
2021/08/06 10:51:16;;;;;;;3.30;3.00;;;;;;;40.81;15.59;93588.50;5055711;28;20052;-59
2021/08/06 10:54:09;;;;;;;3.33;2.95;;;;;;;41.05;15.27;93592.69;5056185;28;20052;-58
2021/08/06 10:56:37;;;;;;;2.90;2.70;;;;;;;40.93;15.04;93584.53;5056243;28;20037;-54
2021/08/06 10:59:13;;;;;;;3.40;2.78;;;;;;;40.68;15.09;93593.75;5056689;28;20037;-56
2021/08/06 11:01:45;;;;;;;2.88;2.58;;;;;;;40.51;15.64;93593.00;5055906;28;20041;-57
2021/08/06 11:04:15;;;;;;;2.70;2.35;;;;;;;40.49;15.52;93587.28;5056586;28;20435;-58
2021/08/06 11:06:47;;;;;;;4.05;2.55;;;;;;;40.36;15.73;93591.25;5055379;28;20048;-59
2021/08/06 11:09:24;;;;;;;2.90;2.45;;;;;;;40.43;15.62;93592.00;5056057;28;20418;-56
2021/08/06 11:11:57;;;;;;;3.70;2.38;;;;;;;40.34;15.24;93574.56;5054879;28;20056;-59
2021/08/06 11:14:40;;;;;;;3.75;2.40;;;;;;;40.35;15.60;93584.28;5038305;28;20048;-55
2021/08/06 11:17:17;;;;;;;4.78;2.30;;;;;;;39.93;15.89;93584.44;5055520;28;20435;-57
2021/08/06 11:20:19;;;;;;;2.33;1.88;;;;;;;40.10;15.61;93571.56;5056067;28;20475;-53
2021/08/06 11:22:49;;;;;;;3.40;1.90;;;;;;;40.60;15.10;93582.56;5013491;28;20040;-53
2021/08/06 11:25:19;;;;;;;4.95;4.45;;;;;;;40.06;15.54;93587.47;5056199;28;20351;-58
2021/08/06 11:27:54;;;;;;;4.28;2.40;;;;;;;40.19;15.75;93574.06;5055137;28;20051;-56
2021/08/06 11:30:29;;;;;;;4.20;2.42;;;;;;;40.28;15.74;93586.75;5038189;28;20053;-55
2021/08/06 11:32:59;;;;;;;2.42;2.15;;;;;;;40.06;15.99;93577.25;5056137;28;20044;-55
2021/08/06 11:35:39;;;;;;;3.03;2.30;;;;;;;39.89;16.02;93567.53;5055880;28;20065;-54
2021/08/06 11:38:08;;;;;;;4.00;2.00;;;;;;;39.90;16.17;93574.50;5053824;28;20382;-56
2021/08/06 11:40:38;;;;;;;5.25;2.10;;;;;;;39.86;16.01;93568.53;5054650;28;20044;-53
2021/08/06 11:43:22;;;;;;;2.00;1.80;;;;;;;39.91;16.12;93567.78;5054392;28;20061;-59
2021/08/06 11:45:53;;;;;;;2.33;1.73;;;;;;;40.13;15.68;93565.09;5037550;28;20045;-55